Time;durP1;ratioP1;P1;durP2;ratioP2;P2;SDS_P1;SDS_P2;PMS_P1;PMS_P2;Temp;Humidity;BMP_temperature;BMP_pressure;BME280_temperature;BME280_humidity;BME280_pressure;Samples;Min_cycle;Max_cycle;Signal;HPM_P1;HPM_P2
2021/04/10 00:01:54;;;;;;;21.40;9.23;;;8.90;99.90;;;;;;5083278;28;20260;-77
2021/04/10 00:04:39;;;;;;;20.20;9.17;;;8.90;99.90;;;;;;5079105;28;20206;-76
2021/04/10 00:07:23;;;;;;;21.87;8.97;;;8.90;99.90;;;;;;5078515;28;20232;-76
2021/04/10 00:10:09;;;;;;;17.57;8.30;;;8.90;99.90;;;;;;5077213;28;20307;-77
2021/04/10 00:12:54;;;;;;;17.83;7.60;;;8.90;99.90;;;;;;5081806;28;20242;-77
2021/04/10 00:15:39;;;;;;;16.73;8.70;;;8.90;99.90;;;;;;5083846;28;20200;-77
2021/04/10 00:18:25;;;;;;;21.60;9.00;;;8.80;99.90;;;;;;5079150;28;20296;-76
2021/04/10 00:21:10;;;;;;;17.63;7.97;;;8.80;99.90;;;;;;5084817;28;20253;-76
2021/04/10 00:23:55;;;;;;;16.30;8.87;;;8.80;99.90;;;;;;5081517;28;20249;-76
2021/04/10 00:26:40;;;;;;;17.33;8.03;;;8.70;99.90;;;;;;5086234;28;20233;-76
2021/04/10 00:29:26;;;;;;;18.87;8.37;;;8.70;99.90;;;;;;5079640;28;20234;-77
2021/04/10 00:32:10;;;;;;;20.77;8.43;;;8.70;99.90;;;;;;5085353;28;20213;-76
2021/04/10 00:34:56;;;;;;;17.80;8.73;;;8.70;99.90;;;;;;5078987;28;20224;-77
2021/04/10 00:37:41;;;;;;;16.57;8.10;;;8.60;99.90;;;;;;5081969;28;20216;-76
2021/04/10 00:40:26;;;;;;;20.43;8.30;;;8.60;99.90;;;;;;5085631;28;20276;-77
2021/04/10 00:43:11;;;;;;;20.90;8.07;;;8.60;99.90;;;;;;5080809;28;20564;-77
2021/04/10 00:45:56;;;;;;;14.70;6.87;;;8.50;99.90;;;;;;5082244;28;20253;-77
2021/04/10 00:48:41;;;;;;;17.13;7.20;;;8.50;99.90;;;;;;5082948;28;20336;-77
2021/04/10 00:51:27;;;;;;;16.33;7.47;;;8.50;99.90;;;;;;5077927;28;20217;-77
2021/04/10 00:54:12;;;;;;;18.50;7.30;;;8.40;99.90;;;;;;5082789;28;20260;-77
2021/04/10 00:56:57;;;;;;;21.77;7.50;;;8.40;99.90;;;;;;5085907;28;20212;-76
2021/04/10 00:59:42;;;;;;;16.37;7.10;;;8.40;99.90;;;;;;5079238;28;20222;-76
2021/04/10 01:02:27;;;;;;;17.77;8.33;;;8.30;99.90;;;;;;5075526;28;20714;-77
2021/04/10 01:05:13;;;;;;;21.80;8.17;;;8.30;99.90;;;;;;5084152;28;20256;-77
2021/04/10 01:07:59;;;;;;;21.33;7.60;;;8.30;99.90;;;;;;5078535;28;20222;-76
2021/04/10 01:10:43;;;;;;;13.77;5.87;;;8.20;99.90;;;;;;5084700;28;20276;-77
2021/04/10 01:13:36;;;;;;;15.90;6.43;;;8.20;99.90;;;;;;5087247;28;20221;-77
2021/04/10 01:16:29;;;;;;;14.43;6.00;;;8.20;99.90;;;;;;5082592;28;20588;-77
2021/04/10 01:19:27;;;;;;;13.87;5.83;;;8.10;99.90;;;;;;5083773;28;20276;-77
2021/04/10 01:22:20;;;;;;;17.17;6.00;;;8.10;99.90;;;;;;5077446;28;20245;-77
2021/04/10 01:25:09;;;;;;;16.20;5.43;;;8.00;99.90;;;;;;5079896;28;20225;-77
2021/04/10 01:27:57;;;;;;;15.13;5.30;;;8.00;99.90;;;;;;5078142;28;20216;-76
2021/04/10 01:30:44;;;;;;;13.23;5.13;;;8.00;99.90;;;;;;5079655;28;20283;-76
2021/04/10 01:33:32;;;;;;;13.80;5.10;;;7.90;99.90;;;;;;5083140;28;20225;-77
2021/04/10 01:36:21;;;;;;;13.20;4.90;;;7.90;99.90;;;;;;5087534;28;20209;-77
2021/04/10 01:39:11;;;;;;;14.17;4.97;;;7.80;99.90;;;;;;5088499;28;20199;-76
2021/04/10 01:41:56;;;;;;;11.87;4.67;;;7.80;99.90;;;;;;5084419;28;20241;-77
2021/04/10 01:44:43;;;;;;;10.83;4.30;;;7.80;99.90;;;;;;5089369;28;20221;-77
2021/04/10 01:47:32;;;;;;;10.63;4.40;;;7.70;99.90;;;;;;5077394;28;20332;-77
2021/04/10 01:50:17;;;;;;;14.10;5.10;;;7.70;99.90;;;;;;5084022;28;20222;-77
2021/04/10 01:53:03;;;;;;;14.17;5.40;;;7.60;99.90;;;;;;5087896;28;20219;-76
2021/04/10 01:55:49;;;;;;;18.93;5.30;;;7.60;99.90;;;;;;5083634;28;20197;-77
2021/04/10 01:58:36;;;;;;;13.97;4.73;;;7.60;99.90;;;;;;5082254;28;20210;-77
2021/04/10 02:01:24;;;;;;;14.90;4.77;;;7.50;99.90;;;;;;5087272;28;20330;-77
2021/04/10 02:04:11;;;;;;;12.97;4.90;;;7.50;99.90;;;;;;5084727;28;20197;-77
2021/04/10 02:06:57;;;;;;;11.70;4.20;;;7.50;99.90;;;;;;5086025;28;21945;-77
2021/04/10 02:09:46;;;;;;;14.67;4.40;;;7.50;99.90;;;;;;5082271;28;20237;-77
2021/04/10 02:12:32;;;;;;;16.70;4.90;;;7.50;99.90;;;;;;5081788;28;20765;-77
2021/04/10 02:15:18;;;;;;;14.03;4.57;;;7.40;99.90;;;;;;5081694;28;20210;-76
2021/04/10 02:18:03;;;;;;;10.87;4.87;;;7.40;99.90;;;;;;5080465;28;20704;-76
2021/04/10 02:20:49;;;;;;;13.07;4.43;;;7.40;99.90;;;;;;5087886;28;20220;-77
2021/04/10 02:23:34;;;;;;;16.70;5.57;;;7.40;99.90;;;;;;5084398;28;20221;-77
2021/04/10 02:26:20;;;;;;;11.73;4.40;;;7.40;99.90;;;;;;5088754;28;21502;-77
2021/04/10 02:29:05;;;;;;;10.80;4.43;;;7.40;99.90;;;;;;5077868;28;20206;-77
2021/04/10 02:31:54;;;;;;;16.10;4.70;;;7.30;99.90;;;;;;5086654;28;20285;-77
2021/04/10 02:34:52;;;;;;;16.00;4.93;;;7.40;99.90;;;;;;5087303;28;20911;-77
2021/04/10 02:37:38;;;;;;;11.67;4.83;;;7.40;99.90;;;;;;5078742;28;20210;-77
2021/04/10 02:40:27;;;;;;;13.20;5.73;;;7.40;99.90;;;;;;5085676;28;20233;-76
2021/04/10 02:43:17;;;;;;;13.13;4.70;;;7.30;99.90;;;;;;5089205;28;20220;-77
2021/04/10 02:46:04;;;;;;;10.93;4.10;;;7.30;99.90;;;;;;5078312;28;20327;-76
2021/04/10 02:48:55;;;;;;;9.97;4.73;;;7.30;99.90;;;;;;5087981;28;20202;-77
2021/04/10 02:51:44;;;;;;;12.40;4.60;;;7.30;99.90;;;;;;5092252;28;20262;-77
2021/04/10 02:54:35;;;;;;;11.73;5.13;;;7.30;99.90;;;;;;5082046;28;20212;-77
2021/04/10 02:57:23;;;;;;;16.07;4.93;;;7.30;99.90;;;;;;5088938;28;20316;-76
2021/04/10 03:00:09;;;;;;;12.37;5.33;;;7.30;99.90;;;;;;5087998;28;20271;-76
2021/04/10 03:02:57;;;;;;;10.80;4.70;;;7.30;99.90;;;;;;5087916;28;20218;-77
2021/04/10 03:05:44;;;;;;;14.67;5.43;;;7.30;99.90;;;;;;5076874;28;20710;-76
2021/04/10 03:08:29;;;;;;;16.00;4.50;;;7.30;99.90;;;;;;5084887;28;20677;-77
2021/04/10 03:11:16;;;;;;;11.03;4.63;;;7.30;99.90;;;;;;5084122;28;20923;-77
2021/04/10 03:14:01;;;;;;;13.60;5.17;;;7.20;99.90;;;;;;5086917;28;20229;-77
2021/04/10 03:16:46;;;;;;;11.67;4.87;;;7.20;99.90;;;;;;5080346;28;20724;-77
2021/04/10 03:19:34;;;;;;;9.43;4.63;;;7.20;99.90;;;;;;5082195;28;20229;-76
2021/04/10 03:22:19;;;;;;;12.73;4.60;;;7.20;99.90;;;;;;5074471;28;20211;-77
2021/04/10 03:25:05;;;;;;;13.10;5.37;;;7.20;99.90;;;;;;5081220;28;20216;-77
2021/04/10 03:27:51;;;;;;;15.30;6.10;;;7.20;99.90;;;;;;5073479;28;20209;-77
2021/04/10 03:30:37;;;;;;;16.47;6.00;;;7.10;99.90;;;;;;5083562;28;20296;-77
2021/04/10 03:33:23;;;;;;;13.50;5.60;;;7.10;99.90;;;;;;5083496;28;20290;-77
2021/04/10 03:36:09;;;;;;;10.23;4.77;;;7.10;99.90;;;;;;5081895;28;20200;-77
2021/04/10 03:38:54;;;;;;;14.13;5.20;;;7.10;99.90;;;;;;5086156;28;20204;-77
2021/04/10 03:41:40;;;;;;;11.87;5.60;;;7.10;99.90;;;;;;5085749;28;20693;-76
2021/04/10 03:44:26;;;;;;;12.73;5.30;;;7.10;99.90;;;;;;5086423;28;20217;-77
2021/04/10 03:47:11;;;;;;;11.70;5.40;;;7.00;99.90;;;;;;5084374;28;20205;-76
2021/04/10 03:49:56;;;;;;;18.30;6.60;;;7.00;99.90;;;;;;5079742;28;20321;-77
2021/04/10 03:52:41;;;;;;;16.93;6.03;;;7.00;99.90;;;;;;5074772;28;20214;-76
2021/04/10 03:55:25;;;;;;;18.30;6.80;;;7.00;99.90;;;;;;5086331;28;20232;-77
2021/04/10 03:58:11;;;;;;;18.20;7.20;;;7.00;99.90;;;;;;5078178;28;20322;-76
2021/04/10 04:00:56;;;;;;;15.67;6.53;;;7.00;99.90;;;;;;5075153;28;20243;-77
2021/04/10 04:03:41;;;;;;;15.03;6.80;;;7.00;99.90;;;;;;5084840;28;20205;-77
2021/04/10 04:06:26;;;;;;;16.20;6.30;;;7.00;99.90;;;;;;5086403;28;20241;-77
2021/04/10 04:09:11;;;;;;;20.20;7.03;;;7.00;99.90;;;;;;5082472;28;20257;-76
2021/04/10 04:11:56;;;;;;;15.13;6.70;;;6.90;99.90;;;;;;5082258;28;20243;-77
2021/04/10 04:14:41;;;;;;;16.50;7.07;;;6.90;99.90;;;;;;5084767;28;20201;-76
2021/04/10 04:17:26;;;;;;;15.90;6.20;;;6.90;99.90;;;;;;5081604;28;20387;-76
2021/04/10 04:20:12;;;;;;;17.93;7.33;;;6.90;99.90;;;;;;5079782;28;20229;-77
2021/04/10 04:22:57;;;;;;;16.87;7.30;;;6.90;99.90;;;;;;5080933;28;20252;-75
2021/04/10 04:25:42;;;;;;;15.37;6.53;;;6.90;99.90;;;;;;5079314;28;20198;-77
2021/04/10 04:28:26;;;;;;;19.30;6.77;;;6.90;99.90;;;;;;5078303;28;20232;-77
2021/04/10 04:31:11;;;;;;;16.50;7.03;;;6.90;99.90;;;;;;5082298;28;20233;-77
2021/04/10 04:33:57;;;;;;;16.77;6.67;;;6.90;99.90;;;;;;5080710;28;20241;-76
2021/04/10 04:36:42;;;;;;;15.70;6.97;;;6.80;99.90;;;;;;5079788;28;20220;-76
2021/04/10 04:39:27;;;;;;;16.60;7.20;;;6.80;99.90;;;;;;5085784;28;20221;-76
2021/04/10 04:42:11;;;;;;;16.03;6.77;;;6.80;99.90;;;;;;5073852;28;20669;-76
2021/04/10 04:44:56;;;;;;;15.90;7.27;;;6.80;99.90;;;;;;5081847;28;20224;-76
2021/04/10 04:47:41;;;;;;;22.17;7.20;;;6.80;99.90;;;;;;5075867;28;20212;-76
2021/04/10 04:50:27;;;;;;;20.90;7.87;;;6.80;99.90;;;;;;5082339;28;20229;-77
2021/04/10 04:53:11;;;;;;;20.83;7.87;;;6.80;99.90;;;;;;5077362;28;20225;-77
2021/04/10 04:55:56;;;;;;;16.03;6.60;;;6.80;99.90;;;;;;5078987;28;20267;-77
2021/04/10 04:58:41;;;;;;;18.47;7.63;;;6.80;99.90;;;;;;5068603;28;20201;-77
2021/04/10 05:01:26;;;;;;;17.53;8.07;;;6.80;99.90;;;;;;5079981;28;20205;-77
2021/04/10 05:04:12;;;;;;;21.93;7.73;;;6.80;99.90;;;;;;5079960;28;20201;-77
2021/04/10 05:06:58;;;;;;;20.00;7.97;;;6.80;99.90;;;;;;5079244;28;20693;-77
2021/04/10 05:09:43;;;;;;;20.33;8.70;;;6.80;99.90;;;;;;5079212;28;20772;-77
2021/04/10 05:12:27;;;;;;;18.80;8.10;;;6.80;99.90;;;;;;5085435;28;20287;-77
2021/04/10 05:15:13;;;;;;;17.47;8.00;;;6.80;99.90;;;;;;5085078;28;20236;-77
2021/04/10 05:17:58;;;;;;;19.10;9.10;;;6.80;99.90;;;;;;5085197;28;20225;-78
2021/04/10 05:20:43;;;;;;;17.17;8.00;;;6.80;99.90;;;;;;5086083;28;20253;-77
2021/04/10 05:23:29;;;;;;;21.67;8.03;;;6.80;99.90;;;;;;5081014;28;20274;-76
2021/04/10 05:26:13;;;;;;;26.33;8.67;;;6.80;99.90;;;;;;5081549;28;20283;-77
2021/04/10 05:28:58;;;;;;;23.70;9.37;;;6.80;99.90;;;;;;5075658;28;20217;-77
2021/04/10 05:31:43;;;;;;;17.73;8.90;;;6.80;99.90;;;;;;5081715;28;20797;-77
2021/04/10 05:34:27;;;;;;;14.83;8.07;;;6.80;99.90;;;;;;5081172;28;20569;-77
2021/04/10 05:37:12;;;;;;;16.70;8.70;;;6.80;99.90;;;;;;5085379;28;20674;-77
2021/04/10 05:39:58;;;;;;;18.93;8.13;;;6.80;99.90;;;;;;5080495;28;20234;-77
2021/04/10 05:42:44;;;;;;;17.13;7.80;;;6.80;99.90;;;;;;5084133;28;20332;-77
2021/04/10 05:45:29;;;;;;;19.73;8.73;;;6.80;99.90;;;;;;5080144;28;20198;-77
2021/04/10 05:48:14;;;;;;;17.90;7.60;;;6.80;99.90;;;;;;5085038;28;20212;-77
2021/04/10 05:50:59;;;;;;;17.37;7.50;;;6.80;99.90;;;;;;5086288;28;20617;-77
2021/04/10 05:53:45;;;;;;;19.97;8.63;;;6.80;99.90;;;;;;5089435;28;20269;-77
2021/04/10 05:56:31;;;;;;;19.10;7.50;;;6.80;99.90;;;;;;5107771;28;20228;-77
2021/04/10 05:59:16;;;;;;;16.27;7.70;;;6.80;99.90;;;;;;5103075;28;20271;-77
2021/04/10 06:02:05;;;;;;;20.00;7.50;;;6.80;99.90;;;;;;5103960;28;20186;-77
2021/04/10 06:04:51;;;;;;;16.37;6.93;;;6.80;99.90;;;;;;5091372;28;20694;-77
2021/04/10 06:07:36;;;;;;;17.40;7.83;;;6.90;99.90;;;;;;5085071;28;20789;-77
2021/04/10 06:10:21;;;;;;;17.63;7.60;;;6.90;99.90;;;;;;5085186;28;20360;-77
2021/04/10 06:13:08;;;;;;;20.37;7.53;;;6.90;99.90;;;;;;5078567;28;20226;-78
2021/04/10 06:15:53;;;;;;;16.97;7.60;;;7.00;99.90;;;;;;5080875;28;20556;-78
2021/04/10 06:18:38;;;;;;;16.73;7.13;;;7.00;99.90;;;;;;5082238;28;20574;-78
2021/04/10 06:21:23;;;;;;;18.10;7.97;;;7.10;99.90;;;;;;5081103;28;20286;-78
2021/04/10 06:24:09;;;;;;;16.87;7.60;;;7.10;99.90;;;;;;5086171;28;20206;-78
2021/04/10 06:26:54;;;;;;;20.60;8.10;;;7.20;99.90;;;;;;5076750;28;20321;-78
2021/04/10 06:29:40;;;;;;;19.20;7.63;;;7.10;99.90;;;;;;5082910;28;20776;-78
2021/04/10 06:32:25;;;;;;;19.27;7.63;;;7.30;99.90;;;;;;5074338;28;20322;-78
2021/04/10 06:35:10;;;;;;;19.50;7.20;;;7.30;99.90;;;;;;5086481;28;20272;-77
2021/04/10 06:37:56;;;;;;;15.10;7.40;;;7.40;99.90;;;;;;5090057;28;20595;-78
2021/04/10 06:40:41;;;;;;;16.50;6.30;;;7.40;99.90;;;;;;5078502;28;20221;-78
2021/04/10 06:43:26;;;;;;;19.07;6.77;;;7.50;99.90;;;;;;5079104;28;20201;-78
2021/04/10 06:46:12;;;;;;;15.47;7.03;;;7.50;99.90;;;;;;5079276;28;20197;-78
2021/04/10 06:48:58;;;;;;;14.43;6.20;;;7.60;99.90;;;;;;5096742;28;20210;-77
2021/04/10 06:51:43;;;;;;;16.53;6.37;;;7.70;99.90;;;;;;5071515;28;20305;-77
2021/04/10 06:54:32;;;;;;;17.80;5.97;;;7.70;99.90;;;;;;5070181;28;20202;-77
2021/04/10 06:57:19;;;;;;;14.53;6.20;;;7.80;99.90;;;;;;5087466;28;20255;-77
2021/04/10 07:00:08;;;;;;;13.33;5.60;;;7.90;99.90;;;;;;5076421;28;20313;-77
2021/04/10 07:02:57;;;;;;;15.43;5.93;;;7.90;99.90;;;;;;5069414;28;20195;-77
2021/04/10 07:05:42;;;;;;;14.70;5.97;;;8.00;99.90;;;;;;5096792;28;20360;-77
2021/04/10 07:08:27;;;;;;;14.20;5.47;;;8.10;99.90;;;;;;5080484;28;20232;-77
2021/04/10 07:11:13;;;;;;;18.53;6.10;;;8.10;99.90;;;;;;5087323;28;20315;-77
2021/04/10 07:13:57;;;;;;;10.83;5.87;;;8.20;99.90;;;;;;5073490;28;20257;-77
2021/04/10 07:16:42;;;;;;;11.70;6.00;;;8.20;99.90;;;;;;5084413;28;20210;-77
2021/04/10 07:19:29;;;;;;;17.73;6.33;;;8.30;99.90;;;;;;5073157;28;21034;-77
2021/04/10 07:22:16;;;;;;;15.93;5.97;;;8.30;99.90;;;;;;5076731;28;20205;-78
2021/04/10 07:25:01;;;;;;;13.53;5.03;;;8.40;99.90;;;;;;5083794;28;20213;-78
2021/04/10 07:27:46;;;;;;;14.07;5.80;;;8.40;99.90;;;;;;5081809;28;20213;-77
2021/04/10 07:31:00;;;;;;;13.67;6.03;;;8.40;99.90;;;;;;5083093;28;20237;-77
2021/04/10 07:33:58;;;;;;;12.57;5.17;;;8.50;99.90;;;;;;5089446;28;20271;-78
2021/04/10 07:36:44;;;;;;;13.37;5.73;;;8.50;99.90;;;;;;5086887;28;20204;-78
2021/04/10 07:39:44;;;;;;;12.90;5.40;;;8.50;99.90;;;;;;5086199;28;20229;-77
2021/04/10 07:42:30;;;;;;;15.70;5.40;;;8.60;99.90;;;;;;5074736;28;20698;-77
2021/04/10 07:45:29;;;;;;;10.57;5.13;;;8.60;99.90;;;;;;5087600;28;20251;-77
2021/04/10 07:48:17;;;;;;;11.83;4.50;;;8.70;99.90;;;;;;5076534;28;20260;-77
2021/04/10 07:51:02;;;;;;;12.30;5.67;;;8.70;99.90;;;;;;5078103;28;20720;-77
2021/04/10 07:53:48;;;;;;;12.47;5.27;;;8.70;99.90;;;;;;5088251;28;20217;-77
2021/04/10 07:56:52;;;;;;;13.07;5.30;;;8.80;99.90;;;;;;5076911;28;21026;-77
2021/04/10 07:59:53;;;;;;;16.63;5.30;;;8.80;99.90;;;;;;5078230;28;20327;-77
2021/04/10 08:02:38;;;;;;;13.70;5.10;;;8.90;99.90;;;;;;5075372;28;20745;-77
2021/04/10 08:05:24;;;;;;;12.27;5.13;;;8.90;99.90;;;;;;5077364;28;20281;-77
2021/04/10 08:08:09;;;;;;;12.13;5.17;;;8.90;99.90;;;;;;5088473;28;20209;-77
2021/04/10 08:10:59;;;;;;;12.23;5.13;;;9.00;99.90;;;;;;5088190;28;20619;-77
2021/04/10 08:13:53;;;;;;;12.73;5.10;;;9.10;99.90;;;;;;5085328;28;20233;-77
2021/04/10 08:16:39;;;;;;;9.87;4.97;;;9.20;99.90;;;;;;5087349;28;20688;-77
2021/04/10 08:19:29;;;;;;;12.87;4.70;;;9.20;99.90;;;;;;5091934;28;20736;-77
2021/04/10 08:22:14;;;;;;;18.40;5.33;;;9.30;99.90;;;;;;5085099;28;20263;-77
2021/04/10 08:24:59;;;;;;;12.43;4.80;;;9.40;99.90;;;;;;5101814;28;20197;-77
2021/04/10 08:27:44;;;;;;;12.00;4.57;;;9.40;99.90;;;;;;5089375;28;20324;-77
2021/04/10 08:30:29;;;;;;;13.37;4.70;;;9.50;99.90;;;;;;5074268;28;20241;-77
2021/04/10 08:33:14;;;;;;;14.40;4.90;;;9.60;99.90;;;;;;5099030;28;20217;-77
2021/04/10 08:36:02;;;;;;;13.50;4.80;;;9.70;99.90;;;;;;5081978;28;20272;-77
2021/04/10 08:38:47;;;;;;;14.10;4.63;;;9.80;99.90;;;;;;5081038;28;20221;-77
2021/04/10 08:41:32;;;;;;;15.80;5.10;;;9.90;99.90;;;;;;5089882;28;20228;-77
2021/04/10 08:44:24;;;;;;;12.93;4.97;;;10.10;99.90;;;;;;5089132;28;20232;-77
2021/04/10 08:47:11;;;;;;;13.47;4.40;;;10.20;99.90;;;;;;5093037;28;20205;-77
2021/04/10 08:49:56;;;;;;;13.33;4.80;;;10.20;99.90;;;;;;5094232;28;20229;-77
2021/04/10 08:52:41;;;;;;;14.27;4.77;;;10.30;99.90;;;;;;5076420;28;20229;-76
2021/04/10 08:55:26;;;;;;;16.77;5.40;;;10.30;99.90;;;;;;5081420;28;20225;-77
2021/04/10 08:58:22;;;;;;;14.07;5.30;;;10.30;99.90;;;;;;5094485;28;20267;-77
2021/04/10 09:01:10;;;;;;;13.33;4.97;;;10.40;99.90;;;;;;5080858;28;20240;-76
2021/04/10 09:03:55;;;;;;;10.10;4.43;;;10.40;99.90;;;;;;5083796;28;20625;-77
2021/04/10 09:06:50;;;;;;;11.13;4.70;;;10.40;99.90;;;;;;5077462;28;20252;-77
2021/04/10 09:09:35;;;;;;;14.43;5.00;;;10.40;99.90;;;;;;5076284;28;20805;-77
2021/04/10 09:12:26;;;;;;;12.77;5.30;;;10.40;99.90;;;;;;5092414;28;20717;-77
2021/04/10 09:15:12;;;;;;;16.97;6.30;;;10.40;99.90;;;;;;5080638;28;20248;-77
2021/04/10 09:17:58;;;;;;;15.03;6.20;;;10.40;99.90;;;;;;5080811;28;20205;-76
2021/04/10 09:20:50;;;;;;;11.50;4.97;;;10.40;99.90;;;;;;5091598;28;20248;-77
2021/04/10 09:23:35;;;;;;;14.97;4.93;;;10.40;99.90;;;;;;5081052;28;20213;-77
2021/04/10 09:26:20;;;;;;;12.97;5.07;;;10.40;99.90;;;;;;5084784;28;20775;-76
2021/04/10 09:29:19;;;;;;;9.73;5.53;;;10.40;99.90;;;;;;5087697;28;20232;-76
2021/04/10 09:32:05;;;;;;;12.43;5.53;;;10.40;99.90;;;;;;5080504;28;20267;-78
2021/04/10 09:34:56;;;;;;;17.17;5.57;;;10.40;99.90;;;;;;5076951;28;20975;-75
2021/04/10 09:37:51;;;;;;;11.77;5.17;;;10.40;99.90;;;;;;5075928;28;20202;-76
2021/04/10 09:40:47;;;;;;;14.40;6.20;;;10.40;99.90;;;;;;5080158;28;20221;-76
2021/04/10 09:43:32;;;;;;;18.37;5.40;;;10.30;99.90;;;;;;5092084;28;20198;-77
2021/04/10 09:46:31;;;;;;;15.33;5.63;;;10.30;99.90;;;;;;5080016;28;20241;-76
2021/04/10 09:49:35;;;;;;;12.77;5.00;;;10.40;99.90;;;;;;5084773;28;20303;-77
2021/04/10 09:52:21;;;;;;;15.87;5.23;;;10.40;99.90;;;;;;5078219;28;20264;-77
2021/04/10 09:55:08;;;;;;;16.63;6.70;;;10.40;99.90;;;;;;5080576;28;20241;-75
2021/04/10 09:57:54;;;;;;;10.93;4.90;;;10.40;99.90;;;;;;5076977;28;20725;-75
2021/04/10 10:00:41;;;;;;;14.93;5.07;;;10.30;99.90;;;;;;5084045;28;20252;-77
2021/04/10 10:03:26;;;;;;;16.27;5.20;;;10.30;99.90;;;;;;5073761;28;20210;-76
2021/04/10 10:06:19;;;;;;;15.33;5.27;;;10.30;99.90;;;;;;5085524;28;20201;-76
2021/04/10 10:09:27;;;;;;;12.07;5.23;;;10.30;99.90;;;;;;5081922;28;20326;-77
2021/04/10 10:12:27;;;;;;;17.83;5.50;;;10.30;99.90;;;;;;5082627;28;20205;-76
2021/04/10 10:15:22;;;;;;;14.50;5.50;;;10.30;99.90;;;;;;5080404;28;20210;-77
2021/04/10 10:18:17;;;;;;;16.03;5.60;;;10.20;99.90;;;;;;5089194;28;20250;-77
2021/04/10 10:21:04;;;;;;;14.10;5.77;;;10.10;99.90;;;;;;5086440;28;20229;-76
2021/04/10 10:23:51;;;;;;;15.20;6.17;;;10.10;99.90;;;;;;5073859;28;20577;-78
2021/04/10 10:26:40;;;;;;;13.63;5.83;;;10.00;99.90;;;;;;5073611;28;20210;-79
2021/04/10 10:29:25;;;;;;;14.03;5.87;;;9.90;99.90;;;;;;5088608;28;20238;-79
2021/04/10 10:32:10;;;;;;;17.17;5.40;;;9.90;99.90;;;;;;5087967;28;20213;-77
2021/04/10 10:34:55;;;;;;;21.23;6.17;;;9.80;99.90;;;;;;5077428;28;20235;-77
2021/04/10 10:37:40;;;;;;;17.07;6.37;;;9.80;99.90;;;;;;5090593;28;20205;-78
2021/04/10 10:40:26;;;;;;;15.50;6.37;;;9.70;99.90;;;;;;5086141;28;20332;-82
2021/04/10 10:43:12;;;;;;;15.90;6.33;;;9.60;99.90;;;;;;5086060;28;20228;-78
2021/04/10 10:45:59;;;;;;;14.70;6.90;;;9.70;99.90;;;;;;5080068;28;20271;-79
2021/04/10 10:48:46;;;;;;;15.73;7.20;;;9.70;99.90;;;;;;5085644;28;20204;-78
2021/04/10 10:51:36;;;;;;;14.83;7.63;;;9.70;99.90;;;;;;5082917;28;20275;-79
2021/04/10 10:54:30;;;;;;;17.87;8.77;;;9.60;99.90;;;;;;5089595;28;20221;-78
2021/04/10 10:57:16;;;;;;;17.03;8.77;;;9.60;99.90;;;;;;5078726;28;20340;-78
2021/04/10 11:00:09;;;;;;;20.70;10.17;;;9.60;99.90;;;;;;5079234;28;20292;-80
2021/04/10 11:02:54;;;;;;;19.17;9.43;;;9.60;99.90;;;;;;5079977;28;20201;-78
2021/04/10 11:05:39;;;;;;;22.33;11.30;;;9.60;99.90;;;;;;5084594;28;20244;-78
2021/04/10 11:08:25;;;;;;;22.67;11.60;;;9.50;99.90;;;;;;5083009;28;20689;-77
2021/04/10 11:11:11;;;;;;;23.30;11.20;;;9.60;99.90;;;;;;5088548;28;20225;-78
2021/04/10 11:13:56;;;;;;;20.43;11.07;;;9.60;99.90;;;;;;5080873;28;20264;-76
2021/04/10 11:16:43;;;;;;;21.40;12.83;;;9.60;99.90;;;;;;5080286;28;20208;-78
2021/04/10 11:19:30;;;;;;;21.50;12.30;;;9.60;99.90;;;;;;5089608;28;20306;-78
2021/04/10 11:22:16;;;;;;;20.70;12.33;;;9.60;99.90;;;;;;5074620;28;20275;-78
2021/04/10 11:25:02;;;;;;;27.97;13.53;;;9.60;99.90;;;;;;5088812;28;20263;-77
2021/04/10 11:27:47;;;;;;;22.83;13.63;;;9.50;99.90;;;;;;5089195;28;20233;-77
2021/04/10 11:30:32;;;;;;;19.80;13.37;;;9.50;99.90;;;;;;5084837;28;21065;-76
2021/04/10 11:33:32;;;;;;;26.10;14.00;;;9.40;99.90;;;;;;5082139;28;20267;-77
2021/04/10 11:36:17;;;;;;;22.80;14.40;;;9.40;99.90;;;;;;5082024;28;20197;-79
2021/04/10 11:39:03;;;;;;;20.63;14.87;;;9.40;99.90;;;;;;5088685;28;20249;-80
2021/04/10 11:41:49;;;;;;;25.27;15.07;;;9.30;99.90;;;;;;5086528;28;20217;-78
2021/04/10 11:44:38;;;;;;;22.90;15.93;;;9.30;99.90;;;;;;5077449;28;20213;-79
2021/04/10 11:47:25;;;;;;;22.40;14.67;;;9.20;99.90;;;;;;5076836;28;20206;-78
2021/04/10 11:50:14;;;;;;;26.47;16.83;;;9.20;99.90;;;;;;5083953;28;20261;-79
2021/04/10 11:53:12;;;;;;;24.53;17.00;;;9.10;99.90;;;;;;5090706;28;21033;-78
2021/04/10 11:55:59;;;;;;;27.47;16.37;;;9.10;99.90;;;;;;5090451;28;20233;-77
2021/04/10 11:58:44;;;;;;;28.07;18.80;;;9.10;99.90;;;;;;5088806;28;20206;-79
2021/04/10 12:01:29;;;;;;;27.30;18.03;;;9.10;99.90;;;;;;5089028;28;20198;-78
2021/04/10 12:04:25;;;;;;;32.90;19.47;;;9.00;99.90;;;;;;5077178;28;20197;-79
2021/04/10 12:07:11;;;;;;;30.00;19.37;;;9.00;99.90;;;;;;5088813;28;20307;-78
2021/04/10 12:09:56;;;;;;;33.93;22.20;;;9.00;99.90;;;;;;5089035;28;20233;-79
2021/04/10 12:12:42;;;;;;;33.80;20.77;;;9.00;99.90;;;;;;5088965;28;20675;-79
2021/04/10 12:15:27;;;;;;;33.30;21.13;;;8.90;99.90;;;;;;5078927;28;20244;-78
2021/04/10 12:18:12;;;;;;;29.60;22.33;;;9.00;99.90;;;;;;5098176;28;20563;-79
2021/04/10 12:20:59;;;;;;;31.03;21.73;;;8.90;99.90;;;;;;5083191;28;20228;-79
2021/04/10 12:23:44;;;;;;;31.07;21.53;;;8.90;99.90;;;;;;5072765;28;20277;-78
2021/04/10 12:26:29;;;;;;;30.47;21.90;;;8.90;99.90;;;;;;5086181;28;20208;-79
2021/04/10 12:29:14;;;;;;;30.03;21.60;;;8.90;99.90;;;;;;5099326;28;20251;-78
2021/04/10 12:31:59;;;;;;;35.97;22.63;;;8.90;99.90;;;;;;5072540;28;20225;-78
2021/04/10 12:34:44;;;;;;;35.13;23.47;;;8.90;99.90;;;;;;5076166;28;20221;-79
2021/04/10 12:37:29;;;;;;;34.27;22.80;;;8.90;99.90;;;;;;5081858;28;20209;-78
2021/04/10 12:40:16;;;;;;;37.67;22.47;;;8.90;99.90;;;;;;5089365;28;20279;-76
2021/04/10 12:43:04;;;;;;;32.40;21.33;;;8.80;99.90;;;;;;5089153;28;20252;-76
2021/04/10 12:45:49;;;;;;;32.40;21.17;;;8.80;99.90;;;;;;5069096;28;20292;-76
2021/04/10 12:48:34;;;;;;;35.40;21.67;;;8.80;99.90;;;;;;5082023;28;20260;-78
2021/04/10 12:51:19;;;;;;;32.20;21.60;;;8.70;99.90;;;;;;5077742;28;20298;-81
2021/04/10 12:54:04;;;;;;;32.73;22.13;;;8.70;99.90;;;;;;5082628;28;20272;-78
2021/04/10 12:56:49;;;;;;;32.10;20.60;;;8.70;99.90;;;;;;5082053;28;20214;-78
2021/04/10 12:59:34;;;;;;;30.03;21.60;;;8.70;99.90;;;;;;5072681;28;20225;-78
2021/04/10 13:02:19;;;;;;;29.97;19.43;;;8.60;99.90;;;;;;5078601;28;20202;-78
2021/04/10 13:05:05;;;;;;;29.30;20.50;;;8.60;99.90;;;;;;5081832;28;20221;-78
2021/04/10 13:07:50;;;;;;;32.00;20.33;;;8.60;99.90;;;;;;5070586;28;20217;-77
2021/04/10 13:10:37;;;;;;;35.40;21.20;;;8.50;99.90;;;;;;5077498;28;20224;-78
2021/04/10 13:13:23;;;;;;;30.23;20.67;;;8.50;99.90;;;;;;5083868;28;20213;-79
2021/04/10 13:16:08;;;;;;;28.17;20.47;;;8.50;99.90;;;;;;5086694;28;20660;-81
2021/04/10 13:18:53;;;;;;;30.30;19.27;;;8.50;99.90;;;;;;5084422;28;20218;-77
2021/04/10 13:21:38;;;;;;;25.23;17.93;;;8.50;99.90;;;;;;5088057;28;20689;-79
2021/04/10 13:24:23;;;;;;;29.03;20.73;;;8.50;99.90;;;;;;5084146;28;20201;-82
2021/04/10 13:27:08;;;;;;;32.03;19.13;;;8.40;99.90;;;;;;5082176;28;20209;-77
2021/04/10 13:29:54;;;;;;;32.43;17.17;;;8.40;99.90;;;;;;5084235;28;20991;-77
2021/04/10 13:32:39;;;;;;;29.23;18.53;;;8.40;99.90;;;;;;5083626;28;20205;-78
2021/04/10 13:35:26;;;;;;;31.60;18.50;;;8.40;99.90;;;;;;5079981;28;20194;-79
2021/04/10 13:38:11;;;;;;;26.57;17.73;;;8.30;99.90;;;;;;5080481;28;20210;-78
2021/04/10 13:40:56;;;;;;;27.97;19.17;;;8.40;99.90;;;;;;5093764;28;20612;-78
2021/04/10 13:43:41;;;;;;;34.57;18.63;;;8.30;99.90;;;;;;5084088;28;20247;-77
2021/04/10 13:46:26;;;;;;;29.63;19.43;;;8.30;99.90;;;;;;5092949;28;20241;-78
2021/04/10 13:49:11;;;;;;;33.60;18.47;;;8.30;99.90;;;;;;5085789;28;20239;-78
2021/04/10 13:51:56;;;;;;;31.43;18.80;;;8.20;99.90;;;;;;5083539;28;20220;-78
2021/04/10 13:54:41;;;;;;;34.53;18.90;;;8.20;99.90;;;;;;5088765;28;20256;-79
2021/04/10 13:57:26;;;;;;;30.20;17.97;;;8.20;99.90;;;;;;5084417;28;20248;-77
2021/04/10 14:00:12;;;;;;;30.30;16.23;;;8.20;99.90;;;;;;5089717;28;20229;-80
2021/04/10 14:02:57;;;;;;;27.77;17.80;;;8.20;99.90;;;;;;5082397;28;20252;-78
2021/04/10 14:05:43;;;;;;;30.23;17.47;;;8.20;99.90;;;;;;5089265;28;20205;-78
2021/04/10 14:08:28;;;;;;;27.17;16.40;;;8.20;99.90;;;;;;5085472;28;20200;-78
2021/04/10 14:11:12;;;;;;;29.13;17.00;;;8.20;99.90;;;;;;5092536;28;20264;-80
2021/04/10 14:13:57;;;;;;;27.50;16.47;;;8.30;99.90;;;;;;5088690;28;20216;-79
2021/04/10 14:16:42;;;;;;;30.40;16.67;;;8.20;99.90;;;;;;5082159;28;20205;-78
2021/04/10 14:19:27;;;;;;;28.80;16.70;;;8.20;99.90;;;;;;5086640;28;20252;-78
2021/04/10 14:22:13;;;;;;;24.43;15.33;;;8.20;99.90;;;;;;5087009;28;20207;-78
2021/04/10 14:24:58;;;;;;;23.27;15.17;;;8.20;99.90;;;;;;5104617;28;20233;-78